Aeroporto :
LOGIN :

Iscrizione | Disclaimer

   EN    FR    IT 

 










Sommario :    VFR   VFR Marginale   IFR   IFR Intensivo   IFR Molto Intensivo
Visibilità : 
Base nubi : 
>= 8 km
>= 3000ft
5 / 8 km
1000 / 3000 ft
1500m / 5 km
500 / 1000 ft
800 / 1500m
200 / 500 ft
< 800m
< 200 ft
Simboli :   Temporali  Nebbia  Neve Forte  Precipitazioni Forti  Vento > 20 kt
SIGMETs :   Varie  Temporali  Ghiacco  Turbolenza  Onda orograficha  Ceneri Vulcaniche






- Altitudine del aeroporto : 302 ft
- Codice IATA : CGN


EDDK - Cologne Bonn

ULTIMO METAR :
  • 202120Z 28014KT 9999 -RA SCT015 BKN038 05/04 Q1014 NOSIG

METARs OBSOLETI :
  • 202050Z 28019KT 9999 -SHRA FEW014 SCT017CB BKN030 05/03 Q1014 RESHRA BECMG 26020G30KT
  • 202020Z 22017KT 9999 -SHRA SCT024CB BKN036 08/05 Q1011 TEMPO 26020G40KT 4000 +SHRA
  • 201950Z 21014KT 9999 -RA FEW027 SCT032 BKN046 09/05 Q1010 TEMPO 26020G40KT 4000 +SHRA BKN015CB
  • 201920Z 21012KT 9999 -RA FEW028 BKN034 09/04 Q1011 TEMPO 26020G40KT 4000 +SHRA BKN015CB
  • 201850Z 20012KT 9999 -RA FEW028 BKN034 09/04 Q1011 TEMPO 21015G30KT SHRA BKN020CB

TAF TAF EDDK
Valido dal 20 a 18 ore il 22 a 00 ore UTC


201700Z 2018/2124 21013KT 9999 BKN030
TEMPO 2018/2020 22015G25KT
BECMG 2020/2022 28015G30KT
TEMPO 2020/2022 28025G45KT 4000 +SHRA BKN012CB
TEMPO 2022/2024 SHRA BKN015TCU
BECMG 2100/2103 24010KT
TEMPO 2112/2116 25015G25KT



MetMap, La meteo Aeronautica in un colpo d'occhio ! - Copyright ORBIFLY Dicembre 2007 - Disclaimer

ORBIFLY MET'MAP TEAM :

Programmazione e sviluppo : Alexandra Zaïnal
Concezione : Baudouin d'Aumeries
Aiuto per la programmazione : Marc-Olivier Méhu
Supporto tecnico e logistico : Manuel Goepfert
Aiuto per la traduzione : Arnaldo La Scala

Contatto : metmap@orbifly.com




FONTI E CREDITI :

   NOAA